Time;durP1;ratioP1;P1;durP2;ratioP2;P2;SDS_P1;SDS_P2;PMS_P1;PMS_P2;Temp;Humidity;BMP_temperature;BMP_pressure;BME280_temperature;BME280_humidity;BME280_pressure;Samples;Min_cycle;Max_cycle;Signal;HPM_P1;HPM_P2
2023/09/28 00:02:53;;;;;;;4.87;2.37;;;21.20;99.90;;;;;;5030486;28;20581;-74
2023/09/28 00:05:20;;;;;;;3.80;2.17;;;21.30;99.90;;;;;;5030758;28;21058;-74
2023/09/28 00:07:46;;;;;;;3.40;2.60;;;21.20;99.90;;;;;;5030429;28;20703;-73
2023/09/28 00:10:15;;;;;;;4.90;2.60;;;21.20;99.90;;;;;;5026242;28;20982;-74
2023/09/28 00:12:52;;;;;;;2.57;2.00;;;21.20;99.90;;;;;;5012733;28;20573;-74
2023/09/28 00:15:21;;;;;;;5.00;2.90;;;21.20;99.90;;;;;;5021552;28;20588;-74
2023/09/28 00:17:47;;;;;;;3.03;2.20;;;21.20;99.90;;;;;;5029081;28;20604;-74
2023/09/28 00:20:18;;;;;;;2.37;2.10;;;21.20;99.90;;;;;;5021793;28;20573;-74
2023/09/28 00:22:50;;;;;;;7.03;2.37;;;21.30;99.90;;;;;;5030454;28;20665;-74
2023/09/28 00:25:16;;;;;;;3.50;2.63;;;21.20;99.90;;;;;;5022287;28;20723;-75
2023/09/28 00:27:55;;;;;;;3.20;2.50;;;21.20;99.90;;;;;;5032104;28;20648;-74
2023/09/28 00:30:24;;;;;;;3.70;2.17;;;21.20;99.90;;;;;;5016334;28;20627;-74
2023/09/28 00:32:52;;;;;;;4.73;1.90;;;21.30;99.90;;;;;;5032636;28;21149;-73
2023/09/28 00:35:19;;;;;;;2.43;2.23;;;21.20;99.90;;;;;;5024501;28;20631;-74
2023/09/28 00:37:45;;;;;;;3.30;2.50;;;21.20;99.90;;;;;;5032852;28;20690;-74
2023/09/28 00:42:56;;;;;;;3.63;2.13;;;21.30;99.90;;;;;;5032764;28;20927;-73
2023/09/28 00:45:24;;;;;;;2.70;1.87;;;21.30;99.90;;;;;;5032320;28;20628;-73
2023/09/28 00:48:00;;;;;;;3.50;1.67;;;21.30;99.90;;;;;;5033705;28;21368;-74
2023/09/28 00:50:31;;;;;;;3.37;2.53;;;21.40;99.90;;;;;;5033781;28;20634;-74
2023/09/28 00:53:04;;;;;;;4.63;3.00;;;21.30;99.90;;;;;;4999621;28;20577;-74
2023/09/28 00:55:30;;;;;;;3.73;2.13;;;21.30;99.90;;;;;;5023991;28;20679;-73
2023/09/28 00:58:01;;;;;;;3.13;2.03;;;21.30;99.90;;;;;;5015735;28;20628;-74
2023/09/28 01:00:32;;;;;;;2.83;2.27;;;21.30;99.90;;;;;;5033570;28;20580;-74
2023/09/28 01:02:59;;;;;;;4.07;2.53;;;21.30;99.90;;;;;;5032246;28;21161;-73
2023/09/28 01:05:30;;;;;;;2.40;2.07;;;21.30;99.90;;;;;;5030976;28;21228;-74
2023/09/28 01:08:15;;;;;;;4.60;2.57;;;21.30;99.90;;;;;;5033960;28;20981;-74
2023/09/28 01:10:41;;;;;;;2.60;2.00;;;21.20;99.90;;;;;;5040423;28;20580;-74
2023/09/28 01:13:12;;;;;;;2.73;2.00;;;21.20;99.90;;;;;;5015812;28;20627;-74
2023/09/28 01:15:42;;;;;;;5.23;2.00;;;21.20;99.90;;;;;;5031825;28;21176;-74
2023/09/28 01:18:15;;;;;;;4.10;2.30;;;21.20;99.90;;;;;;5015304;28;20623;-74
2023/09/28 01:20:43;;;;;;;3.03;1.97;;;21.20;99.90;;;;;;5044347;23;20703;-75
2023/09/28 01:23:10;;;;;;;3.67;2.30;;;21.20;99.90;;;;;;5012678;28;20581;-75
2023/09/28 01:25:37;;;;;;;3.70;2.43;;;21.20;99.90;;;;;;5024269;28;21230;-74
2023/09/28 01:28:05;;;;;;;3.10;2.07;;;21.20;99.90;;;;;;5034500;28;21132;-75
2023/09/28 01:30:32;;;;;;;2.57;1.80;;;21.20;99.90;;;;;;5030399;28;20619;-75
2023/09/28 01:32:58;;;;;;;2.67;1.97;;;21.20;99.90;;;;;;4999076;28;20589;-75
2023/09/28 01:35:24;;;;;;;3.50;1.87;;;21.20;99.90;;;;;;5008649;28;20735;-75
2023/09/28 01:38:20;;;;;;;2.50;1.60;;;21.10;99.90;;;;;;5003898;28;20170;-75
2023/09/28 01:40:47;;;;;;;2.20;1.57;;;21.10;99.90;;;;;;5020353;28;20617;-75
2023/09/28 01:43:14;;;;;;;2.90;1.83;;;21.10;99.90;;;;;;5020415;28;20608;-75
2023/09/28 01:45:41;;;;;;;3.27;1.70;;;21.10;99.90;;;;;;5012169;28;20637;-75
2023/09/28 01:48:07;;;;;;;2.57;1.70;;;21.00;99.90;;;;;;5017205;28;20597;-75
2023/09/28 01:50:33;;;;;;;3.40;1.90;;;21.10;99.90;;;;;;5000736;28;20198;-75
2023/09/28 01:52:59;;;;;;;2.60;2.40;;;21.10;99.90;;;;;;5023061;28;20652;-75
2023/09/28 01:55:24;;;;;;;2.57;1.93;;;21.10;99.90;;;;;;4995621;28;20612;-75
2023/09/28 01:57:50;;;;;;;3.07;2.50;;;21.00;99.90;;;;;;5012922;28;20584;-75
2023/09/28 02:00:20;;;;;;;2.70;2.20;;;21.00;99.90;;;;;;4997319;28;20202;-76
2023/09/28 02:02:46;;;;;;;2.60;1.83;;;21.00;99.90;;;;;;5010943;28;20182;-75
2023/09/28 02:05:17;;;;;;;4.20;2.20;;;21.00;99.90;;;;;;5032932;28;20624;-75
2023/09/28 02:07:44;;;;;;;4.10;2.30;;;21.00;99.90;;;;;;5016751;28;20585;-75
2023/09/28 02:10:10;;;;;;;4.27;2.10;;;21.00;99.90;;;;;;5011875;28;20625;-75
2023/09/28 02:12:43;;;;;;;3.53;2.10;;;20.90;99.90;;;;;;5029115;28;20589;-75
2023/09/28 02:15:15;;;;;;;2.67;1.80;;;20.90;99.90;;;;;;5029048;28;20588;-74
2023/09/28 02:17:44;;;;;;;2.83;2.17;;;20.90;99.90;;;;;;5001396;28;20577;-74
2023/09/28 02:20:14;;;;;;;2.97;2.03;;;20.90;99.90;;;;;;5013874;28;20632;-74
2023/09/28 02:22:43;;;;;;;4.40;2.93;;;20.90;99.90;;;;;;5031191;28;20671;-74
2023/09/28 02:25:19;;;;;;;3.50;1.90;;;20.90;99.90;;;;;;4996432;28;20633;-76
2023/09/28 02:27:46;;;;;;;3.50;1.73;;;20.90;99.90;;;;;;4978904;28;20631;-74
2023/09/28 02:30:15;;;;;;;2.27;1.80;;;20.90;99.90;;;;;;5025040;28;20631;-74
2023/09/28 02:32:47;;;;;;;2.30;1.80;;;20.90;99.90;;;;;;5032382;28;20569;-75
2023/09/28 02:35:15;;;;;;;3.53;2.00;;;20.90;99.90;;;;;;5007370;28;20599;-74
2023/09/28 02:37:43;;;;;;;2.40;1.60;;;20.90;99.90;;;;;;5016758;28;20598;-75
2023/09/28 02:40:10;;;;;;;2.70;1.83;;;20.90;99.90;;;;;;5011091;28;20610;-74
2023/09/28 02:42:36;;;;;;;5.07;2.23;;;20.90;99.90;;;;;;4995032;28;20605;-74
2023/09/28 02:45:10;;;;;;;2.77;1.97;;;20.90;99.90;;;;;;4994319;28;20723;-74
2023/09/28 02:47:36;;;;;;;2.30;1.87;;;20.90;99.90;;;;;;5012567;28;20719;-75
2023/09/28 02:50:04;;;;;;;2.23;1.33;;;20.80;99.90;;;;;;5020493;28;20631;-74
2023/09/28 02:52:30;;;;;;;3.37;1.90;;;20.80;99.90;;;;;;5019250;28;20586;-74
2023/09/28 02:54:55;;;;;;;3.20;1.90;;;20.80;99.90;;;;;;5027039;28;20953;-74
2023/09/28 02:57:21;;;;;;;2.23;1.60;;;20.80;99.90;;;;;;5002608;28;20667;-74
2023/09/28 02:59:47;;;;;;;2.10;1.60;;;20.80;99.90;;;;;;5010807;28;20731;-75
2023/09/28 03:02:13;;;;;;;3.83;2.47;;;20.70;99.90;;;;;;5010880;28;20577;-75
2023/09/28 03:04:39;;;;;;;2.80;2.20;;;20.70;99.90;;;;;;5010830;28;20639;-75
2023/09/28 03:07:05;;;;;;;2.90;1.87;;;20.70;99.90;;;;;;5028129;28;20583;-75
2023/09/28 03:09:33;;;;;;;4.10;2.60;;;20.70;99.90;;;;;;4994001;28;20183;-75
2023/09/28 03:11:59;;;;;;;5.03;2.17;;;20.60;99.90;;;;;;5010306;28;20201;-75
2023/09/28 03:14:25;;;;;;;2.43;1.63;;;20.60;99.90;;;;;;5010974;28;20979;-78
2023/09/28 03:16:51;;;;;;;2.90;2.10;;;20.60;99.90;;;;;;4998372;28;20599;-78
2023/09/28 03:19:17;;;;;;;2.20;1.70;;;20.50;99.90;;;;;;5007304;28;20684;-78
2023/09/28 03:21:44;;;;;;;2.90;2.00;;;20.50;99.90;;;;;;5018190;28;20218;-78
2023/09/28 03:24:10;;;;;;;3.17;2.00;;;20.50;99.90;;;;;;5015590;28;20612;-78
2023/09/28 03:26:36;;;;;;;4.03;1.60;;;20.40;99.90;;;;;;5019111;28;20624;-79
2023/09/28 03:29:02;;;;;;;6.37;2.03;;;20.40;99.90;;;;;;5024783;28;21178;-78
2023/09/28 03:31:28;;;;;;;3.30;2.40;;;20.40;99.90;;;;;;5033394;28;20628;-79
2023/09/28 03:33:54;;;;;;;3.33;1.93;;;20.40;99.90;;;;;;5017668;28;20651;-79
2023/09/28 03:36:23;;;;;;;2.53;2.03;;;20.40;99.90;;;;;;5009687;28;20589;-79
2023/09/28 03:38:50;;;;;;;3.60;2.00;;;20.30;99.90;;;;;;5009919;28;20201;-79
2023/09/28 03:41:17;;;;;;;3.67;2.17;;;20.20;99.90;;;;;;5019180;28;20667;-78
2023/09/28 03:43:48;;;;;;;4.77;2.43;;;20.20;99.90;;;;;;5009308;28;20585;-80
2023/09/28 03:46:19;;;;;;;4.20;2.37;;;20.20;99.90;;;;;;5009864;28;20996;-79
2023/09/28 03:48:45;;;;;;;2.90;2.10;;;20.10;99.90;;;;;;5010886;28;20569;-79
2023/09/28 03:51:11;;;;;;;3.17;1.90;;;20.10;99.90;;;;;;5010788;28;20605;-79
2023/09/28 03:53:40;;;;;;;4.20;2.53;;;20.00;99.90;;;;;;5011190;28;21129;-79
2023/09/28 03:56:06;;;;;;;3.63;1.77;;;20.00;99.90;;;;;;5009662;28;20601;-78
2023/09/28 03:58:32;;;;;;;2.57;1.93;;;20.00;99.90;;;;;;5008353;28;21158;-78
2023/09/28 04:00:58;;;;;;;3.40;2.43;;;19.90;99.90;;;;;;5011353;28;20625;-78
2023/09/28 04:03:24;;;;;;;2.77;1.83;;;19.90;99.90;;;;;;5022186;28;20600;-79
2023/09/28 04:05:50;;;;;;;4.20;2.40;;;19.90;99.90;;;;;;5014385;28;20249;-79
2023/09/28 04:08:16;;;;;;;3.00;2.37;;;19.90;99.90;;;;;;5015334;28;20609;-79
2023/09/28 04:10:41;;;;;;;2.80;1.93;;;19.90;99.90;;;;;;5014814;28;20194;-79
2023/09/28 04:13:07;;;;;;;3.90;2.40;;;19.90;99.90;;;;;;5014820;28;20520;-79
2023/09/28 04:15:33;;;;;;;3.30;2.77;;;19.80;99.90;;;;;;4996599;28;20584;-79
2023/09/28 04:18:00;;;;;;;3.03;2.30;;;19.80;99.90;;;;;;4997149;28;20589;-78
2023/09/28 04:20:26;;;;;;;3.77;2.37;;;19.70;99.90;;;;;;5013400;28;20225;-79
2023/09/28 04:22:52;;;;;;;4.00;2.60;;;19.70;99.90;;;;;;5013374;28;20589;-79
2023/09/28 04:25:20;;;;;;;4.23;2.83;;;19.80;99.90;;;;;;5014407;28;20641;-79
2023/09/28 04:27:47;;;;;;;4.47;2.40;;;19.70;99.90;;;;;;5013375;28;20185;-78
2023/09/28 04:30:13;;;;;;;3.83;2.50;;;19.70;99.90;;;;;;5020220;28;20699;-79
2023/09/28 04:32:38;;;;;;;3.23;2.70;;;19.70;99.90;;;;;;5022483;28;20639;-79
2023/09/28 04:35:06;;;;;;;2.93;2.60;;;19.70;99.90;;;;;;5012940;28;20682;-79
2023/09/28 04:37:32;;;;;;;5.23;2.57;;;19.60;99.90;;;;;;5015649;28;20589;-78
2023/09/28 04:40:01;;;;;;;3.83;2.60;;;19.60;99.90;;;;;;5022400;28;20619;-78
2023/09/28 04:42:26;;;;;;;4.00;2.67;;;19.50;99.90;;;;;;5014423;28;20595;-78
2023/09/28 04:44:53;;;;;;;5.20;3.30;;;19.50;99.90;;;;;;5009537;28;20632;-78
2023/09/28 04:47:18;;;;;;;4.83;2.73;;;19.50;99.90;;;;;;5012999;28;20175;-78
2023/09/28 04:49:45;;;;;;;4.30;2.40;;;19.50;99.90;;;;;;5013205;28;20603;-79
2023/09/28 04:52:12;;;;;;;5.17;3.33;;;19.40;99.90;;;;;;5012978;28;20201;-78
2023/09/28 04:54:39;;;;;;;4.63;2.30;;;19.40;99.90;;;;;;5013088;28;20592;-77
2023/09/28 04:57:05;;;;;;;4.17;2.40;;;19.40;99.90;;;;;;5020080;28;20607;-78
2023/09/28 04:59:40;;;;;;;4.57;3.37;;;19.40;99.90;;;;;;5014280;28;20585;-78
2023/09/28 05:02:06;;;;;;;3.40;2.60;;;19.30;99.90;;;;;;5014024;28;20605;-78
2023/09/28 05:04:32;;;;;;;2.87;2.57;;;19.30;99.90;;;;;;5012419;28;20589;-77
2023/09/28 05:06:59;;;;;;;3.70;2.80;;;19.30;99.90;;;;;;5013131;28;20643;-81
2023/09/28 05:09:26;;;;;;;3.50;3.07;;;19.30;99.90;;;;;;5016990;28;20173;-78
2023/09/28 05:11:53;;;;;;;3.60;2.70;;;19.30;99.90;;;;;;5001653;28;21020;-75
2023/09/28 05:14:24;;;;;;;4.00;2.77;;;19.20;99.90;;;;;;5021062;28;20597;-75
2023/09/28 05:16:50;;;;;;;3.87;2.90;;;19.20;99.90;;;;;;5021529;28;21193;-76
2023/09/28 05:19:16;;;;;;;7.00;3.00;;;19.20;99.90;;;;;;5018422;28;20601;-75
2023/09/28 05:21:42;;;;;;;7.63;3.10;;;19.20;99.90;;;;;;5023837;28;20647;-76
2023/09/28 05:24:07;;;;;;;4.67;3.50;;;19.20;99.90;;;;;;5019811;28;20201;-76
2023/09/28 05:26:33;;;;;;;4.73;2.97;;;19.20;99.90;;;;;;5013835;28;20214;-76
2023/09/28 05:28:59;;;;;;;4.13;3.23;;;19.10;99.90;;;;;;5013276;28;20193;-76
2023/09/28 05:31:25;;;;;;;4.50;2.60;;;19.20;99.90;;;;;;5001089;28;20201;-76
2023/09/28 05:33:51;;;;;;;7.33;3.13;;;19.10;99.90;;;;;;5014711;28;20170;-76
2023/09/28 05:36:20;;;;;;;2.73;2.37;;;19.10;99.90;;;;;;5012475;28;20984;-77
2023/09/28 05:38:46;;;;;;;6.20;3.37;;;19.10;99.90;;;;;;5012651;28;20279;-76
2023/09/28 05:41:12;;;;;;;3.47;3.17;;;19.10;99.90;;;;;;5021498;28;20734;-76
2023/09/28 05:43:38;;;;;;;4.83;3.00;;;19.00;99.90;;;;;;5000285;28;20588;-76
2023/09/28 05:46:04;;;;;;;5.03;3.40;;;19.00;99.90;;;;;;5007327;28;20207;-76
2023/09/28 05:48:30;;;;;;;4.40;2.63;;;19.00;99.90;;;;;;5021816;28;20596;-75
2023/09/28 05:50:56;;;;;;;4.63;3.40;;;19.00;99.90;;;;;;5026918;28;20620;-76
2023/09/28 05:53:22;;;;;;;4.47;3.03;;;19.10;99.90;;;;;;5021431;28;20182;-76
2023/09/28 05:55:50;;;;;;;5.80;3.30;;;19.10;99.90;;;;;;5017651;28;20647;-76
2023/09/28 05:58:16;;;;;;;5.73;4.03;;;19.10;99.90;;;;;;5017622;28;20197;-76
2023/09/28 06:00:41;;;;;;;4.60;2.83;;;19.10;99.90;;;;;;5025549;28;20605;-76
2023/09/28 06:03:07;;;;;;;4.60;3.67;;;19.10;99.90;;;;;;5016422;28;20232;-76
2023/09/28 06:05:33;;;;;;;3.40;3.10;;;19.20;99.90;;;;;;5010139;28;20197;-76
2023/09/28 06:08:00;;;;;;;5.30;3.43;;;19.20;99.90;;;;;;5012515;28;20190;-76
2023/09/28 06:10:26;;;;;;;4.37;3.50;;;19.20;99.90;;;;;;4998291;28;20621;-75
2023/09/28 06:12:52;;;;;;;4.77;3.30;;;19.30;99.90;;;;;;5019309;28;20624;-76
2023/09/28 06:15:18;;;;;;;6.80;2.90;;;19.30;99.90;;;;;;5012543;28;20652;-77
2023/09/28 06:17:44;;;;;;;5.40;3.70;;;19.40;99.90;;;;;;5012614;28;20178;-77
2023/09/28 06:20:10;;;;;;;5.17;3.20;;;19.40;99.90;;;;;;5020470;28;20648;-76
2023/09/28 06:22:36;;;;;;;6.20;3.00;;;19.50;99.90;;;;;;5012813;28;20182;-75
2023/09/28 06:25:02;;;;;;;6.13;3.63;;;19.50;99.90;;;;;;5019713;28;20636;-77
2023/09/28 06:27:30;;;;;;;8.10;3.17;;;19.50;99.90;;;;;;5013754;28;20183;-77
2023/09/28 06:29:56;;;;;;;5.43;3.83;;;19.60;99.90;;;;;;5011120;28;21154;-77
2023/09/28 06:32:22;;;;;;;8.47;3.70;;;19.60;99.90;;;;;;5011252;28;20627;-77
2023/09/28 06:34:48;;;;;;;4.30;3.30;;;19.70;99.90;;;;;;5021246;28;20182;-77
2023/09/28 06:37:14;;;;;;;6.33;3.70;;;19.70;99.90;;;;;;4995451;28;20596;-77
2023/09/28 06:39:40;;;;;;;4.60;3.50;;;19.70;99.90;;;;;;5018925;28;20166;-77
2023/09/28 06:42:06;;;;;;;5.83;4.13;;;19.80;99.90;;;;;;5018851;28;21188;-77
2023/09/28 06:44:34;;;;;;;7.00;3.90;;;19.90;99.90;;;;;;5010865;28;20596;-78
2023/09/28 06:47:01;;;;;;;6.33;4.57;;;20.00;99.90;;;;;;5010557;28;20597;-77
2023/09/28 06:49:27;;;;;;;5.53;3.87;;;20.10;99.90;;;;;;5011756;28;20592;-77
2023/09/28 06:51:53;;;;;;;5.60;3.93;;;20.10;99.90;;;;;;5017298;28;20600;-77
2023/09/28 06:54:20;;;;;;;5.00;4.30;;;20.20;99.90;;;;;;5012646;28;21246;-77
2023/09/28 06:56:49;;;;;;;5.90;3.87;;;20.20;99.90;;;;;;5011452;28;20261;-77
2023/09/28 06:59:15;;;;;;;5.13;3.63;;;20.30;99.90;;;;;;5010328;28;20692;-78
2023/09/28 07:01:41;;;;;;;9.17;3.90;;;20.40;99.90;;;;;;5011480;28;21043;-77
2023/09/28 07:04:08;;;;;;;8.53;3.90;;;20.50;99.90;;;;;;5013122;28;20584;-78
2023/09/28 07:06:33;;;;;;;6.80;4.43;;;20.60;99.90;;;;;;4994145;28;20201;-77
2023/09/28 07:09:00;;;;;;;5.50;3.53;;;20.70;99.90;;;;;;5019747;28;20627;-77
2023/09/28 07:11:26;;;;;;;6.83;2.83;;;20.80;99.90;;;;;;5011430;28;20664;-77
2023/09/28 07:13:52;;;;;;;7.90;4.30;;;20.90;99.90;;;;;;5011461;28;20600;-77
2023/09/28 07:16:18;;;;;;;5.23;3.33;;;21.00;99.90;;;;;;5009761;28;20707;-77
2023/09/28 07:18:44;;;;;;;6.30;3.40;;;21.10;99.90;;;;;;5011379;28;20601;-77
2023/09/28 07:21:10;;;;;;;6.47;3.47;;;21.20;99.90;;;;;;5009993;28;20679;-77
2023/09/28 07:23:37;;;;;;;6.73;3.03;;;21.40;99.90;;;;;;5018120;28;20182;-77
2023/09/28 07:26:13;;;;;;;5.27;3.43;;;21.60;99.90;;;;;;5009770;28;20645;-76
2023/09/28 07:28:38;;;;;;;4.90;3.07;;;21.80;99.90;;;;;;5024986;22;20660;-76
2023/09/28 07:31:04;;;;;;;5.60;3.97;;;22.10;99.90;;;;;;5033618;28;20618;-76
2023/09/28 07:33:31;;;;;;;6.03;3.10;;;22.60;99.90;;;;;;5041588;28;20185;-77
2023/09/28 07:35:56;;;;;;;5.47;3.00;;;23.20;99.90;;;;;;5025717;28;20179;-77
2023/09/28 07:38:23;;;;;;;5.27;3.20;;;23.90;99.90;;;;;;5027465;28;20636;-77
2023/09/28 07:40:49;;;;;;;3.97;2.50;;;24.50;99.90;;;;;;5028842;28;20178;-77
2023/09/28 07:43:14;;;;;;;6.73;2.47;;;25.30;99.90;;;;;;5030638;28;20638;-76
2023/09/28 07:45:40;;;;;;;3.20;2.30;;;26.00;99.90;;;;;;5030504;28;20245;-76
2023/09/28 07:48:07;;;;;;;4.77;2.33;;;26.60;99.90;;;;;;5030951;28;20661;-77
2023/09/28 07:50:33;;;;;;;4.03;2.37;;;27.30;99.90;;;;;;5030133;28;20631;-76
2023/09/28 07:52:59;;;;;;;5.53;2.80;;;27.90;99.90;;;;;;5030586;28;20181;-76
2023/09/28 07:55:25;;;;;;;4.47;2.03;;;28.50;99.90;;;;;;5029077;28;20189;-77
2023/09/28 07:57:50;;;;;;;5.40;2.40;;;29.10;99.90;;;;;;5030474;28;20204;-77
2023/09/28 08:00:17;;;;;;;5.20;2.57;;;29.70;99.90;;;;;;5030498;28;20209;-77
2023/09/28 08:02:43;;;;;;;3.40;2.30;;;30.10;99.90;;;;;;5012650;28;20711;-77
2023/09/28 08:05:09;;;;;;;3.43;1.80;;;30.60;99.90;;;;;;5029934;28;20634;-77
2023/09/28 08:07:35;;;;;;;4.30;2.20;;;31.10;99.90;;;;;;5012500;28;21039;-77
2023/09/28 08:10:01;;;;;;;6.23;3.00;;;31.60;99.90;;;;;;5033525;28;20292;-77
2023/09/28 08:12:27;;;;;;;3.23;2.00;;;32.00;99.90;;;;;;5030633;28;20215;-77
2023/09/28 08:14:53;;;;;;;3.63;2.17;;;32.40;99.90;;;;;;5029202;28;21006;-76
2023/09/28 08:17:20;;;;;;;3.60;1.90;;;32.70;99.90;;;;;;5030109;28;20211;-76
2023/09/28 08:19:46;;;;;;;4.80;1.70;;;33.20;99.90;;;;;;5030201;28;20615;-76
2023/09/28 08:22:11;;;;;;;7.70;2.10;;;33.50;99.90;;;;;;5012210;28;20644;-76
2023/09/28 08:24:37;;;;;;;3.50;2.10;;;33.90;99.90;;;;;;5029919;28;20181;-76
2023/09/28 08:27:04;;;;;;;2.90;1.70;;;34.10;98.90;;;;;;5029015;28;20210;-75
2023/09/28 08:29:30;;;;;;;3.87;1.50;;;34.20;97.70;;;;;;5029347;28;20235;-74
2023/09/28 08:31:57;;;;;;;4.20;1.60;;;34.30;96.70;;;;;;5030338;28;20587;-76
2023/09/28 08:34:23;;;;;;;4.43;1.67;;;34.40;95.60;;;;;;5030330;28;20585;-75
2023/09/28 08:36:50;;;;;;;4.60;1.40;;;34.50;94.80;;;;;;5029419;28;20584;-75
2023/09/28 08:39:16;;;;;;;4.87;1.67;;;34.70;94.30;;;;;;5028578;28;20643;-76
2023/09/28 08:41:43;;;;;;;3.23;1.40;;;34.80;93.60;;;;;;5029422;28;20580;-76
2023/09/28 08:44:11;;;;;;;2.60;1.40;;;34.70;92.00;;;;;;5029490;28;20181;-76
2023/09/28 08:46:38;;;;;;;4.00;1.70;;;34.40;90.80;;;;;;5029316;28;20742;-76
2023/09/28 08:49:09;;;;;;;3.80;1.40;;;33.90;90.10;;;;;;5032370;28;21015;-76
2023/09/28 08:51:37;;;;;;;3.90;1.70;;;33.40;88.90;;;;;;5032111;28;20598;-76
2023/09/28 08:54:05;;;;;;;2.73;1.60;;;32.80;87.90;;;;;;5032657;28;20627;-76
2023/09/28 08:56:41;;;;;;;4.70;2.00;;;32.20;88.00;;;;;;5015732;28;20615;-75
2023/09/28 08:59:09;;;;;;;3.30;2.10;;;31.60;87.50;;;;;;5032437;28;20642;-75
2023/09/28 09:01:36;;;;;;;3.40;2.00;;;31.00;88.30;;;;;;5032217;28;20603;-76
2023/09/28 09:04:03;;;;;;;4.23;1.63;;;30.50;89.00;;;;;;5032378;28;20620;-75
2023/09/28 09:06:30;;;;;;;3.10;1.80;;;29.90;89.90;;;;;;5032631;28;21032;-76
2023/09/28 09:09:00;;;;;;;4.23;2.30;;;29.50;90.30;;;;;;5031937;28;20608;-76
2023/09/28 09:11:31;;;;;;;6.17;2.00;;;29.10;91.10;;;;;;5033235;28;20634;-76
2023/09/28 09:13:58;;;;;;;2.87;1.33;;;28.70;91.30;;;;;;5031896;28;20593;-75
2023/09/28 09:16:25;;;;;;;5.00;2.10;;;28.40;91.70;;;;;;5031670;28;20585;-76
2023/09/28 09:18:52;;;;;;;4.20;2.40;;;28.20;92.30;;;;;;5015342;28;20621;-76
2023/09/28 09:21:19;;;;;;;6.73;2.33;;;27.90;92.70;;;;;;5033006;28;20583;-76
2023/09/28 09:24:01;;;;;;;4.00;2.37;;;27.80;93.20;;;;;;5034461;28;20683;-76
2023/09/28 09:26:27;;;;;;;4.23;1.87;;;27.70;93.90;;;;;;5032781;28;20727;-76
2023/09/28 09:28:58;;;;;;;3.80;2.00;;;27.70;94.50;;;;;;5032904;28;21077;-76
2023/09/28 09:31:24;;;;;;;4.70;1.80;;;27.90;95.50;;;;;;5031227;28;20285;-76
2023/09/28 09:33:50;;;;;;;3.13;1.80;;;28.30;96.10;;;;;;5031710;28;20626;-76
2023/09/28 09:36:18;;;;;;;3.57;1.83;;;28.70;96.60;;;;;;5031103;28;20592;-76
2023/09/28 09:38:45;;;;;;;6.43;2.20;;;29.10;96.40;;;;;;5032521;28;20283;-76
2023/09/28 09:41:11;;;;;;;4.13;1.93;;;29.30;95.90;;;;;;5032790;28;20596;-76
2023/09/28 09:43:41;;;;;;;5.20;2.20;;;29.50;95.40;;;;;;5031653;28;20585;-75
2023/09/28 09:46:07;;;;;;;4.03;2.40;;;29.60;95.10;;;;;;5031184;28;20208;-75
2023/09/28 09:48:42;;;;;;;8.27;2.60;;;29.50;94.30;;;;;;5031074;28;20620;-75
2023/09/28 09:51:09;;;;;;;4.50;2.30;;;29.40;93.80;;;;;;5032087;28;20587;-76
2023/09/28 09:53:40;;;;;;;6.67;2.33;;;29.30;93.70;;;;;;5031353;28;20579;-75
2023/09/28 09:56:07;;;;;;;3.80;2.23;;;29.10;93.60;;;;;;5032303;28;20586;-76
2023/09/28 09:58:48;;;;;;;8.70;2.87;;;29.10;93.70;;;;;;5034233;28;20691;-76
2023/09/28 10:01:16;;;;;;;3.43;1.93;;;28.90;93.60;;;;;;5032470;28;20584;-76
2023/09/28 10:03:50;;;;;;;4.10;2.10;;;28.90;94.00;;;;;;5032498;28;20679;-74
2023/09/28 10:06:21;;;;;;;5.43;2.60;;;28.90;94.30;;;;;;5031520;28;20627;-75
2023/09/28 10:08:49;;;;;;;7.40;2.20;;;29.00;94.20;;;;;;5014362;28;20667;-75
2023/09/28 10:11:16;;;;;;;5.07;2.03;;;28.90;93.90;;;;;;5030982;28;20593;-76
2023/09/28 10:13:43;;;;;;;5.50;2.43;;;28.80;93.70;;;;;;5032706;28;20573;-76
2023/09/28 10:16:13;;;;;;;4.70;1.93;;;28.70;93.90;;;;;;5034354;28;20589;-76
2023/09/28 10:18:43;;;;;;;4.67;2.00;;;28.60;94.20;;;;;;5032349;28;20654;-76
2023/09/28 10:21:11;;;;;;;5.83;3.03;;;28.70;94.60;;;;;;5031524;28;20591;-76
2023/09/28 10:23:37;;;;;;;5.30;2.90;;;28.80;94.80;;;;;;5030982;28;20952;-76
2023/09/28 10:26:12;;;;;;;3.77;2.23;;;28.80;94.80;;;;;;5031711;28;20636;-75
2023/09/28 10:29:12;;;;;;;4.23;1.80;;;28.90;95.10;;;;;;5030187;28;20635;-76
2023/09/28 10:31:42;;;;;;;3.37;1.47;;;29.20;95.70;;;;;;5030545;28;20584;-76
2023/09/28 10:34:15;;;;;;;4.47;1.97;;;29.70;96.40;;;;;;5030466;28;20702;-74
2023/09/28 10:36:41;;;;;;;3.53;1.50;;;30.20;96.40;;;;;;5013794;28;20651;-74
2023/09/28 10:39:17;;;;;;;2.73;1.77;;;30.70;96.20;;;;;;5030169;28;20615;-75
2023/09/28 10:41:51;;;;;;;3.80;1.77;;;31.20;95.70;;;;;;5030219;28;20211;-74
2023/09/28 10:44:19;;;;;;;3.47;1.50;;;31.70;94.80;;;;;;5031727;28;20584;-74
2023/09/28 10:46:49;;;;;;;4.20;2.10;;;32.20;94.60;;;;;;5031145;28;20713;-75
2023/09/28 10:49:26;;;;;;;5.00;2.33;;;32.60;93.70;;;;;;5031325;28;20961;-74
2023/09/28 10:51:52;;;;;;;3.83;1.80;;;33.00;92.80;;;;;;4987766;28;20593;-75
2023/09/28 10:54:19;;;;;;;3.73;2.50;;;33.40;92.50;;;;;;5027619;28;20720;-74
2023/09/28 10:56:51;;;;;;;4.13;1.83;;;33.50;91.00;;;;;;5029567;28;20589;-74
2023/09/28 10:59:21;;;;;;;5.97;1.67;;;33.50;88.40;;;;;;5029714;28;20626;-75
2023/09/28 11:01:48;;;;;;;3.20;1.83;;;33.30;86.20;;;;;;5031143;28;20949;-74
2023/09/28 11:04:16;;;;;;;3.53;1.50;;;33.10;85.10;;;;;;5030126;28;20596;-76
2023/09/28 11:06:44;;;;;;;3.17;2.03;;;32.80;84.40;;;;;;5029310;28;20633;-75
2023/09/28 11:09:12;;;;;;;3.67;1.43;;;32.50;83.70;;;;;;5029914;28;20618;-75
2023/09/28 11:11:39;;;;;;;2.70;1.50;;;32.20;84.20;;;;;;5030474;28;20670;-75
2023/09/28 11:14:05;;;;;;;2.97;1.70;;;32.00;84.70;;;;;;5031092;28;20584;-75
2023/09/28 11:16:35;;;;;;;3.33;1.73;;;31.80;84.90;;;;;;5030934;28;20593;-75
2023/09/28 11:19:01;;;;;;;4.87;1.70;;;31.70;84.90;;;;;;5029948;28;20624;-75
2023/09/28 11:21:29;;;;;;;4.40;1.80;;;31.50;85.00;;;;;;5029531;28;21087;-75
2023/09/28 11:23:55;;;;;;;3.20;1.70;;;31.30;84.60;;;;;;5031364;28;20227;-75
2023/09/28 11:26:22;;;;;;;3.10;1.63;;;31.20;84.70;;;;;;5030772;28;20666;-75
2023/09/28 11:28:52;;;;;;;3.40;1.90;;;31.00;84.50;;;;;;5030711;28;20628;-75
2023/09/28 11:31:18;;;;;;;3.67;2.03;;;30.70;83.90;;;;;;5030720;28;20581;-75
2023/09/28 11:33:45;;;;;;;3.40;1.60;;;30.50;83.90;;;;;;5029717;28;20591;-75
2023/09/28 11:36:20;;;;;;;2.63;1.37;;;30.20;84.20;;;;;;5030715;28;20584;-75
2023/09/28 11:38:47;;;;;;;3.33;1.20;;;30.00;85.00;;;;;;5030722;28;20615;-74
2023/09/28 11:41:16;;;;;;;3.40;1.67;;;29.80;85.00;;;;;;5029422;28;20585;-74
2023/09/28 11:43:49;;;;;;;2.73;1.40;;;29.70;85.90;;;;;;5029522;28;20588;-75
2023/09/28 11:46:29;;;;;;;4.50;1.70;;;29.70;88.00;;;;;;5029205;28;20632;-75
2023/09/28 11:49:11;;;;;;;2.80;1.67;;;29.80;89.60;;;;;;5030761;28;20707;-75
2023/09/28 11:51:39;;;;;;;3.10;1.60;;;30.00;89.60;;;;;;5028550;28;20569;-75
2023/09/28 11:54:11;;;;;;;3.37;1.47;;;30.30;90.20;;;;;;5029543;28;20580;-75
2023/09/28 11:56:37;;;;;;;4.43;1.60;;;30.50;89.20;;;;;;5029042;28;20664;-75
2023/09/28 11:59:03;;;;;;;2.50;1.40;;;30.60;88.50;;;;;;5028940;28;20604;-74
2023/09/28 12:01:29;;;;;;;3.57;1.60;;;30.60;87.90;;;;;;5013102;28;20233;-75
2023/09/28 12:03:56;;;;;;;4.67;1.60;;;30.70;88.20;;;;;;5029526;28;20596;-76
2023/09/28 12:06:22;;;;;;;6.67;1.53;;;30.80;88.20;;;;;;5030086;28;20213;-75
2023/09/28 12:08:48;;;;;;;3.83;1.67;;;30.90;88.00;;;;;;5029118;28;20614;-75
2023/09/28 12:11:14;;;;;;;5.40;1.87;;;31.00;87.80;;;;;;5029060;28;20592;-75
2023/09/28 12:13:40;;;;;;;4.43;1.60;;;31.00;87.40;;;;;;5031833;28;20594;-75
2023/09/28 12:16:09;;;;;;;5.37;2.23;;;31.00;87.00;;;;;;5036085;28;20174;-76
2023/09/28 12:18:54;;;;;;;4.60;1.97;;;31.00;86.60;;;;;;5029992;28;20207;-77
2023/09/28 12:21:19;;;;;;;3.67;1.87;;;31.10;86.50;;;;;;5028701;28;20599;-77
2023/09/28 12:23:46;;;;;;;3.40;1.53;;;31.10;86.10;;;;;;5032703;28;20600;-74
2023/09/28 12:26:13;;;;;;;4.10;2.03;;;31.10;85.20;;;;;;5033439;28;20232;-74
2023/09/28 12:28:41;;;;;;;2.70;1.30;;;31.00;84.40;;;;;;5037063;28;20666;-74
2023/09/28 12:31:08;;;;;;;3.30;1.27;;;30.80;84.40;;;;;;5016536;28;20638;-74
2023/09/28 12:33:38;;;;;;;4.67;2.10;;;30.70;84.60;;;;;;5032889;28;21145;-76
2023/09/28 12:36:05;;;;;;;5.40;1.53;;;30.60;84.60;;;;;;5033706;28;20592;-76
2023/09/28 12:38:31;;;;;;;2.70;1.60;;;30.50;84.50;;;;;;5032714;28;20693;-75
2023/09/28 12:40:57;;;;;;;3.53;1.60;;;30.40;84.40;;;;;;5032653;28;20942;-75
2023/09/28 12:43:25;;;;;;;5.80;1.70;;;30.20;84.00;;;;;;5034018;28;20743;-75
2023/09/28 12:45:51;;;;;;;3.57;2.13;;;30.00;83.80;;;;;;5033642;28;20639;-75
2023/09/28 12:48:19;;;;;;;3.67;1.70;;;29.90;84.10;;;;;;5032703;28;20621;-76
2023/09/28 12:50:46;;;;;;;3.37;1.50;;;29.80;84.90;;;;;;5015197;28;20185;-75
2023/09/28 12:53:13;;;;;;;2.90;1.53;;;29.70;85.50;;;;;;5032708;28;20600;-75
2023/09/28 12:55:40;;;;;;;4.00;1.70;;;29.60;86.00;;;;;;5032439;28;20650;-75